National Weather Service United States Department of Commerce

Aviation Forecast Discussion

.AVIATION /01Z THURSDAY THROUGH MONDAY/...
The following discussion is for KPHL, KPNE, KTTN, KABE, KRDG, 
KILG, KMIV, KACY and surrounding areas.

Tonight...Mostly VFR conditions are expected. Some patchy 
ground fog possible primarily at KMIV, but the chance is too 
low to include in the TAF at this time. NW winds will continue
to diminish to near 5 kt or less.

Thursday...VFR/SKC conditions expected. N winds less than 10 
kt, backing to the west in the afternoon. Sea breezes likely at 
KMIV/KACY, turning winds SE in the afternoon.

OUTLOOK...
Thursday night and Friday...VFR. Light southwest winds or becoming 
light and variable, then southwest winds Friday increase to 10-15 
knots with possible gusts up to 20 knots. 

Saturday and Sunday...Mainly VFR Saturday and Saturday night with a 
few showers and thunderstorms possible. Sub-VFR conditions should 
occur at times Sunday with developing showers and thunderstorms 
especially in the afternoon. 

Monday...Sub-VFR conditions possible due to a chance of some showers 
and thunderstorms.

&&

Latest PHL Terminal Aerodrome Forecast (TAF)

FTNA35 KPHL 240200 RRD
KPHL 240156Z 2402/2506 VRB05KT P6SM SKC
     FM241500 36008KT P6SM SKC
     FM241800 32006KT P6SM SKC
     FM242100 VRB05KT P6SM SKC

Latest Area Terminal Aerodrome Forecasts (TAFs)

FTUS80 KPNE 232321 RRO
KPNE 232320Z 2400/2424 33006KT P6SM SKC
     FM241500 01008KT P6SM SKC
     FM242100 30005KT P6SM SKC

FTUS80 KTTN 232321 RRR
KTTN 232320Z 2400/2424 32006KT P6SM SKC
     FM241500 01008KT P6SM SKC
     FM242100 30005KT P6SM SKC

FTUS80 KILG 232321 RRH
KILG 232320Z 2400/2424 33008KT P6SM SKC
     FM241500 36007KT P6SM SKC
     FM242000 28006KT P6SM SKC

FTUS80 KRDG 232321 RRO
KRDG 232320Z 2400/2424 32007KT P6SM SKC
     FM241400 35005KT P6SM SKC
     FM241800 29005KT P6SM SKC

FTUS80 KABE 232321
KABE 232320Z 2400/2424 32007KT P6SM SKC

FTNA35 KACY 232327 RRE
KACY 232320Z 2400/2424 35008KT P6SM SKC
     FM241900 16009KT P6SM SKC

FTUS80 KMIV 232321 RRK
KMIV 232320Z 2400/2424 34006KT P6SM SKC
     FM241500 36007KT P6SM SKC
     FM242100 16006KT P6SM SKC

FTUS80 KEWR 240209 AAA
KEWR 240208Z 2402/2506 30008KT P6SM SKC
     FM240500 32006KT P6SM SKC
     FM241400 36009KT P6SM SKC
     FM242000 VRB05KT P6SM SKC
     FM242200 16007KT P6SM SKC
     FM250000 21004KT P6SM SKC

FTUS80 KLGA 240209 AAB
KLGA 240208Z 2402/2506 30010KT P6SM SKC
     FM240500 32006KT P6SM SKC
     FM241300 35010KT P6SM SKC
     FM241900 VRB05KT P6SM SKC
     FM242100 18008KT P6SM SKC
     FM250100 18005KT P6SM SKC

FTNA35 KJFK 240213 RRA
KJFK 240208Z 2402/2506 30009KT P6SM SKC
     FM240500 32007KT P6SM SKC
     FM241300 35010KT P6SM SKC
     FM241700 VRB05KT P6SM SKC
     FM241900 16009KT P6SM SKC
     FM242200 18008KT P6SM SKC
     FM250100 18005KT P6SM SKC

FTUS80 KMDT 240306 AAA
KMDT 240305Z 2403/2424 31002KT P6SM SKC
     FM241330 35005KT P6SM SKC

FTUS80 KBWI 232321 RRB
KBWI 232320Z 2400/2506 32007KT P6SM SCT060
     FM240300 VRB03KT P6SM FEW250
     FM241200 36005KT P6SM SKC
     FM241600 03007KT P6SM SKC
     FM250000 VRB03KT P6SM FEW250

FTUS80 KIAD 232321 RRH
KIAD 232320Z 2400/2506 35006KT P6SM FEW050
     FM240300 VRB03KT P6SM FEW250
     FM240900 00000KT 6SM BR SKC
     FM241200 36004KT P6SM SKC
     FM241600 03008KT P6SM SKC
     FM250000 VRB03KT P6SM FEW250

FTUS80 KDCA 232321 RRD
KDCA 232320Z 2400/2506 33008KT P6SM SCT060
     FM240300 VRB03KT P6SM FEW250
     FM241200 36006KT P6SM SKC
     FM241600 03009KT P6SM SKC
     FM250000 VRB03KT P6SM FEW250

Raw METAR for Philadelphia International Airport

METAR KPHL 240254Z 26005KT 10SM CLR 21/13 A3004 RMK AO2 SLP173 T02060128
     51014 VISNO W $

Raw METAR for Northeast Philadelphia Regional Airport

METAR KPNE 240254Z 27005KT 10SM CLR 19/12 A3005 RMK AO2 SLP175 T01940122
     51014

Raw METAR for Trenton/Mercer County Airport

METAR KTTN 240253Z 29003KT 10SM CLR 20/12 A3002 RMK AO2 SLP159 T02000122
     51012

Raw METAR for Wilmington/New Castle County Airport

METAR KILG 240251Z AUTO 10SM CLR 19/13 A3006 RMK AO2 SLP179 T01890133
     51015 $

Raw METAR for Wings Field Airport

METAR KLOM 240315Z AUTO 25003KT 10SM CLR 16/13 A3006 RMK AO1

Raw METAR for Doylestown Airport

METAR KDYL 240254Z AUTO 00000KT 10SM CLR 18/12 A3004 RMK AO2 SLP167
     T01780117 51013

Raw METAR for Coatesville/Chester County Airport

METAR KMQS 240315Z AUTO 30006KT CLR 17/13 A3009 RMK AO2

Raw METAR for Mount Holly/South Jersey Regional Airport

METAR KVAY 240254Z AUTO 00000KT 10SM CLR 17/14 A3003 RMK AO2 SLP168
     T01720144 51013

PHL Vertical Wind Profile Forecast

PHL VWP

KDIX Radar Loop

KDIX Radar

KDOX Radar Loop

KDIX Radar

Visible Satellite

Visible ImageVisible Loop

Infrared Satellite

Infrared ImageInfrared Loop

ZNY Briefing

ZNY Briefing

ZNY SWAP Statement

ZNY SWAP Statement

KPHL Wind Speed Outlook

KPHL Wind Outlook

KPHL Icing Outlook

KPHL Icing  Outlook

KPHL Compression Outlook

KPHL Compression Outlook

ZNY Day 1 SWAP

KPHL Day 1 SWAP

ZNY Day 2 SWAP

KPHL Day 2 SWAP

Turbulence PIREPs

Turbulence PIREPs

Icing PIREPs

Icing PIREPs

Weather/Sky PIREPs

Weather/Sky PIREPs

Current AIRMETs/SIGMETs

Current AIRMETs/SIGMETs

Sierra (Mountains/IFR) AIRMETs

Current 3-hr Forecast 6-hr Forecast

No Plot Available

No Plot Available

No Plot Available

9-hr Forecast 12-hr Forecast

No Plot Available

No Plot Available

Tango (Turbulence/LLWS) AIRMETs

Current 3-hr Forecast 6-hr Forecast

No Plot Available

No Plot Available

No Plot Available

9-hr Forecast 12-hr Forecast

No Plot Available

No Plot Available

Icing AIRMETs

Current 3-hr Forecast 6-hr Forecast

No Plot Available

No Plot Available

No Plot Available

9-hr Forecast 12-hr Forecast

No Plot Available

No Plot Available

Freezing Level AIRMETs

Current 3-hr Forecast 6-hr Forecast

No Plot Available

No Plot Available

No Plot Available

9-hr Forecast 12-hr Forecast

No Plot Available

No Plot Available